Lakeville, Michigan
Current Conditions -  °F | °C
As of 11:18 PM on Sunday 23 Nov 2014 (Local Time) from KPTK Reporting Station
Moderate Rain Moderate Rain  
Wind Chill: 44°   Ceiling: 500
Heat Index: 49°   Visibility: 4mi
Dew Point: 47°   Wind: 13mph
Humidity: 93%   Direction: 120°ESE
Pressure: 29.26"   Gusts: NA
Location:  42.82°N, 83.15°W
Report Text: KPTK 240418Z 12011KT 4SM RA BR OVC005 09/08 A2926 RMK AO2 CIG 004V009 PRESFR P0006 T00940083
Loading
Personal Weather Stations






























Interactive Weather Map New forecast layout! Learn more

10-Day Weather Forecast

Advertisements
Track Severe Weather on mobile